createdAt,value
2022-08-03T00:00:34.740Z,67.71
2022-08-03T00:02:36.314Z,67.53
2022-08-03T00:04:37.838Z,67.50
2022-08-03T00:06:39.420Z,67.67
2022-08-03T00:08:41.019Z,67.71
2022-08-03T00:10:42.591Z,67.64
2022-08-03T00:12:44.207Z,68.03
2022-08-03T00:14:45.677Z,69.66
2022-08-03T00:16:47.214Z,69.87
2022-08-03T00:18:48.693Z,69.05
2022-08-03T00:20:50.333Z,68.59
2022-08-03T00:22:52.215Z,68.21
2022-08-03T00:24:53.689Z,68.31
2022-08-03T00:26:55.204Z,68.20
2022-08-03T00:28:56.768Z,68.26
2022-08-03T00:30:58.330Z,68.45
2022-08-03T00:33:00.075Z,67.94
2022-08-03T00:35:08.393Z,68.37
2022-08-03T00:37:12.076Z,68.00
2022-08-03T00:39:13.581Z,68.18
2022-08-03T00:41:15.761Z,68.61
2022-08-03T00:43:17.504Z,68.39
2022-08-03T00:45:20.367Z,69.18
2022-08-03T00:47:21.884Z,69.40
2022-08-03T00:49:24.327Z,69.10
2022-08-03T00:51:25.935Z,69.45
2022-08-03T00:53:28.246Z,69.40
2022-08-03T00:55:30.569Z,68.93
2022-08-03T00:57:32.941Z,68.82
2022-08-03T00:59:34.779Z,68.58
2022-08-03T01:01:36.619Z,68.35
2022-08-03T01:03:38.501Z,68.41
2022-08-03T01:05:52.104Z,68.53
2022-08-03T01:08:16.945Z,68.15
2022-08-03T01:10:41.895Z,68.19
2022-08-03T01:12:52.683Z,68.12
2022-08-03T01:15:08.941Z,68.21
2022-08-03T01:17:19.267Z,67.77
2022-08-03T01:19:59.730Z,67.88
2022-08-03T01:22:07.125Z,68.86
2022-08-03T01:24:38.191Z,68.78
2022-08-03T01:26:52.962Z,68.24
2022-08-03T01:29:03.448Z,68.18
2022-08-03T01:31:08.449Z,68.39
2022-08-03T01:33:17.737Z,68.67
2022-08-03T01:35:28.164Z,69.09
2022-08-03T01:37:39.373Z,72.86
2022-08-03T01:39:42.769Z,71.40
2022-08-03T01:42:01.121Z,70.57
2022-08-03T01:44:29.284Z,69.60
2022-08-03T01:46:28.572Z,69.24
2022-08-03T01:48:31.183Z,71.18
2022-08-03T01:50:34.371Z,69.91
2022-08-03T01:52:39.489Z,70.71
2022-08-03T01:54:44.198Z,73.48
2022-08-03T01:56:47.785Z,74.24
2022-08-03T01:58:50.688Z,72.34
2022-08-03T02:00:53.473Z,71.13
2022-08-03T02:02:56.031Z,70.74
2022-08-03T02:04:58.661Z,71.57
2022-08-03T02:07:03.454Z,71.05
2022-08-03T02:09:06.421Z,70.09
2022-08-03T02:11:08.116Z,69.73
2022-08-03T02:13:10.717Z,70.21
2022-08-03T02:15:15.223Z,69.63
2022-08-03T02:17:17.023Z,69.60
2022-08-03T02:19:19.531Z,70.77
2022-08-03T02:21:56.511Z,69.92
2022-08-03T02:23:45.285Z,69.28
2022-08-03T02:25:51.057Z,69.58
2022-08-03T02:27:59.656Z,69.48
2022-08-03T02:30:07.909Z,68.38
2022-08-03T02:32:13.774Z,68.24
2022-08-03T02:34:17.183Z,68.79
2022-08-03T02:36:26.957Z,69.11
2022-08-03T02:38:33.202Z,70.29
2022-08-03T02:40:36.427Z,71.06
2022-08-03T02:42:40.165Z,72.13
2022-08-03T02:44:47.797Z,73.01
2022-08-03T02:46:53.197Z,71.61
2022-08-03T02:48:56.792Z,71.09
2022-08-03T02:50:59.988Z,70.42
2022-08-03T02:53:03.256Z,70.32
2022-08-03T02:55:07.214Z,69.84
2022-08-03T02:57:11.269Z,71.34
2022-08-03T02:59:14.413Z,70.27
2022-08-03T03:01:19.194Z,71.23
2022-08-03T03:03:22.293Z,70.62
2022-08-03T03:05:52.448Z,70.50
2022-08-03T03:07:52.165Z,70.28
2022-08-03T03:09:55.102Z,70.61
2022-08-03T03:11:57.574Z,71.93
2022-08-03T03:14:00.317Z,71.11
2022-08-03T03:16:04.821Z,70.62
2022-08-03T03:18:07.676Z,70.19
2022-08-03T03:20:09.705Z,69.87
2022-08-03T03:22:12.612Z,70.24
2022-08-03T03:24:16.352Z,70.15
2022-08-03T03:26:18.579Z,70.13
2022-08-03T03:28:20.792Z,70.02
2022-08-03T03:30:22.612Z,70.08
2022-08-03T03:32:24.311Z,70.22
2022-08-03T03:34:26.533Z,69.92
2022-08-03T03:36:30.294Z,69.71
2022-08-03T03:38:32.737Z,69.90
2022-08-03T03:40:38.390Z,70.11
2022-08-03T03:42:40.533Z,69.99
2022-08-03T03:44:42.145Z,69.84
2022-08-03T03:46:43.800Z,69.81
2022-08-03T03:48:45.550Z,70.15
2022-08-03T03:50:50.267Z,70.75
2022-08-03T03:52:51.828Z,70.71
2022-08-03T03:55:05.582Z,70.64
2022-08-03T03:57:07.118Z,70.98
2022-08-03T03:59:08.610Z,71.34
2022-08-03T04:01:10.245Z,71.46
2022-08-03T04:03:12.332Z,71.72
2022-08-03T04:05:32.852Z,72.17
2022-08-03T04:08:09.155Z,71.68
2022-08-03T04:10:39.875Z,71.34
2022-08-03T04:12:50.178Z,70.82
2022-08-03T04:14:56.793Z,72.24
2022-08-03T04:17:02.173Z,72.89
2022-08-03T04:19:16.581Z,73.60
2022-08-03T04:21:23.566Z,72.80
2022-08-03T04:23:27.972Z,73.64
2022-08-03T04:25:32.795Z,72.84
2022-08-03T04:27:40.570Z,74.10
2022-08-03T04:29:48.265Z,74.10
2022-08-03T04:31:51.839Z,73.10
2022-08-03T04:33:54.878Z,74.30
2022-08-03T04:36:01.614Z,75.48
2022-08-03T04:38:07.845Z,76.28
2022-08-03T04:40:14.838Z,76.42
2022-08-03T04:42:18.614Z,76.24
2022-08-03T04:44:23.565Z,77.45
2022-08-03T04:46:34.573Z,77.53
2022-08-03T04:48:36.439Z,77.68
2022-08-03T04:50:38.171Z,77.29
2022-08-03T04:52:39.942Z,77.20
2022-08-03T04:54:50.209Z,76.93
2022-08-03T04:56:52.861Z,76.51
2022-08-03T04:58:54.419Z,76.39
2022-08-03T05:00:55.909Z,76.08
2022-08-03T05:02:57.543Z,75.72
2022-08-03T05:04:59.560Z,75.33
2022-08-03T05:07:01.102Z,74.79
2022-08-03T05:09:14.142Z,74.52
2022-08-03T05:11:16.822Z,74.72
2022-08-03T05:13:18.330Z,74.21
2022-08-03T05:15:19.893Z,74.37
2022-08-03T05:17:21.417Z,74.24
2022-08-03T05:19:22.895Z,74.03
2022-08-03T05:21:24.470Z,73.87
2022-08-03T05:23:25.964Z,73.55
2022-08-03T05:25:27.905Z,73.18
2022-08-03T05:27:29.473Z,73.15
2022-08-03T05:29:32.232Z,73.33
2022-08-03T05:31:33.868Z,72.96
2022-08-03T05:33:35.392Z,73.00
2022-08-03T05:35:56.213Z,72.71
2022-08-03T05:38:01.230Z,72.46
2022-08-03T05:40:04.397Z,72.21
2022-08-03T05:42:05.947Z,72.22
2022-08-03T05:44:07.467Z,72.35
2022-08-03T05:46:13.041Z,72.13
2022-08-03T05:48:14.825Z,72.10
2022-08-03T05:50:17.688Z,72.02
2022-08-03T05:52:19.184Z,72.17
2022-08-03T05:54:20.836Z,72.04
2022-08-03T05:56:24.919Z,71.64
2022-08-03T05:58:26.468Z,71.76
2022-08-03T06:00:31.559Z,70.80
2022-08-03T06:02:33.098Z,71.19
2022-08-03T06:04:34.632Z,71.26
2022-08-03T06:06:36.209Z,71.49
2022-08-03T06:08:38.223Z,70.67
2022-08-03T06:10:39.865Z,70.76
2022-08-03T06:12:41.446Z,70.58
2022-08-03T06:14:42.936Z,70.32
2022-08-03T06:16:44.438Z,70.01
2022-08-03T06:18:46.303Z,69.69
2022-08-03T06:20:49.441Z,69.79
2022-08-03T06:23:01.266Z,69.45
2022-08-03T06:25:04.947Z,69.63
2022-08-03T06:27:08.979Z,69.32
2022-08-03T06:29:10.609Z,69.09
2022-08-03T06:31:12.314Z,69.29
2022-08-03T06:33:13.951Z,68.57
2022-08-03T06:35:16.306Z,68.59
2022-08-03T06:37:18.530Z,68.75
2022-08-03T06:39:23.433Z,68.60
2022-08-03T06:41:26.286Z,68.77
2022-08-03T06:43:27.783Z,68.97
2022-08-03T06:45:31.738Z,68.88
2022-08-03T06:47:33.769Z,68.35
2022-08-03T06:49:35.399Z,68.48
2022-08-03T06:52:03.249Z,68.40
2022-08-03T06:53:58.423Z,68.29
2022-08-03T06:56:00.158Z,68.17
2022-08-03T06:58:03.471Z,67.11
2022-08-03T07:00:11.903Z,67.22
2022-08-03T07:02:19.043Z,67.46
2022-08-03T07:04:21.088Z,66.84
2022-08-03T07:06:22.629Z,66.69
2022-08-03T07:08:33.413Z,66.51
2022-08-03T07:10:36.270Z,66.85
2022-08-03T07:12:38.825Z,66.73
2022-08-03T07:15:01.281Z,65.78
2022-08-03T07:17:04.712Z,66.13
2022-08-03T07:19:13.396Z,65.92
2022-08-03T07:21:16.647Z,66.21
2022-08-03T07:23:19.306Z,65.55
2022-08-03T07:25:21.483Z,66.02
2022-08-03T07:27:23.083Z,65.59
2022-08-03T07:29:25.046Z,65.92
2022-08-03T07:31:26.615Z,65.34
2022-08-03T07:33:28.220Z,65.23
2022-08-03T07:35:29.733Z,65.04
2022-08-03T07:37:31.512Z,64.64
2022-08-03T07:39:33.041Z,64.58
2022-08-03T07:41:34.615Z,64.51
2022-08-03T07:43:36.126Z,63.64
2022-08-03T07:45:37.721Z,64.17
2022-08-03T07:47:39.219Z,64.89
2022-08-03T07:49:41.553Z,64.76
2022-08-03T07:51:43.218Z,64.35
2022-08-03T07:53:47.181Z,64.46
2022-08-03T07:55:49.497Z,64.10
2022-08-03T07:58:09.769Z,63.77
2022-08-03T08:00:18.431Z,64.09
2022-08-03T08:02:19.972Z,63.80
2022-08-03T08:04:21.498Z,64.06
2022-08-03T08:06:22.999Z,63.40
2022-08-03T08:08:24.550Z,63.39
2022-08-03T08:10:26.249Z,63.15
2022-08-03T08:12:27.819Z,63.66
2022-08-03T08:14:29.842Z,62.75
2022-08-03T08:16:31.430Z,61.64
2022-08-03T08:18:33.036Z,62.73
2022-08-03T08:20:37.959Z,62.23
2022-08-03T08:22:39.751Z,61.92
2022-08-03T08:26:46.107Z,61.83
2022-08-03T08:28:47.977Z,61.40
2022-08-03T08:30:49.984Z,61.47
2022-08-03T08:32:51.776Z,61.46
2022-08-03T08:34:54.113Z,61.97
2022-08-03T08:36:55.651Z,61.30
2022-08-03T08:38:57.205Z,60.29
2022-08-03T08:40:58.789Z,60.62
2022-08-03T08:43:00.324Z,60.41
2022-08-03T08:45:02.297Z,59.65
2022-08-03T08:47:04.545Z,60.04
2022-08-03T08:49:08.987Z,59.90
2022-08-03T08:51:12.551Z,57.86
2022-08-03T08:53:17.646Z,57.91
2022-08-03T08:55:23.576Z,57.82
2022-08-03T08:57:44.698Z,58.22
2022-08-03T08:59:47.845Z,57.46
2022-08-03T09:01:50.639Z,57.42
2022-08-03T09:03:54.114Z,57.70
2022-08-03T09:05:56.588Z,57.49
2022-08-03T09:07:58.611Z,57.67
2022-08-03T09:10:11.971Z,57.00
2022-08-03T09:12:40.594Z,56.79
2022-08-03T09:14:45.397Z,56.74
2022-08-03T09:17:04.512Z,56.76
2022-08-03T09:19:14.171Z,56.21
2022-08-03T09:21:34.865Z,56.81
2022-08-03T09:24:02.195Z,56.60
2022-08-03T09:26:04.533Z,56.53
2022-08-03T09:28:11.615Z,55.74
2022-08-03T09:30:19.085Z,55.85
2022-08-03T09:32:37.217Z,55.52
2022-08-03T09:34:39.115Z,56.03
2022-08-03T09:36:46.442Z,55.68
2022-08-03T09:39:04.459Z,55.39
2022-08-03T09:41:18.319Z,55.16
2022-08-03T09:43:20.740Z,54.34
2022-08-03T09:45:28.405Z,53.95
2022-08-03T09:47:37.856Z,54.53
2022-08-03T09:50:01.325Z,54.75
2022-08-03T09:52:31.643Z,53.48
2022-08-03T09:54:35.635Z,53.25
2022-08-03T09:56:44.810Z,52.40
2022-08-03T09:58:47.652Z,53.25
2022-08-03T10:01:06.243Z,52.44
2022-08-03T10:03:08.028Z,51.63
2022-08-03T10:05:19.797Z,51.33
2022-08-03T10:07:23.730Z,51.27
2022-08-03T10:09:25.229Z,51.63
2022-08-03T10:11:40.375Z,50.46
2022-08-03T10:13:43.201Z,50.74
2022-08-03T10:16:22.593Z,51.28
2022-08-03T10:18:08.051Z,51.05
2022-08-03T10:20:10.078Z,51.09
2022-08-03T10:22:18.912Z,51.16
2022-08-03T10:24:26.109Z,50.05
2022-08-03T10:26:32.025Z,50.22
2022-08-03T10:28:45.313Z,50.67
2022-08-03T10:30:52.825Z,50.42
2022-08-03T10:33:05.154Z,49.07
2022-08-03T10:35:27.240Z,48.16
2022-08-03T10:37:32.239Z,48.24
2022-08-03T10:39:34.352Z,47.67
2022-08-03T10:41:39.817Z,49.61
2022-08-03T10:43:59.156Z,47.25
2022-08-03T10:46:02.419Z,47.67
2022-08-03T10:48:05.417Z,46.75
2022-08-03T10:50:08.214Z,45.96
2022-08-03T10:52:13.631Z,45.19
2022-08-03T10:54:37.197Z,45.14
2022-08-03T10:56:57.780Z,44.21
2022-08-03T10:58:59.961Z,43.65
2022-08-03T11:01:07.678Z,42.79
2022-08-03T11:03:16.485Z,43.11
2022-08-03T11:05:28.646Z,43.24
2022-08-03T11:07:30.212Z,41.69
2022-08-03T11:09:42.636Z,40.12
2022-08-03T11:11:48.782Z,40.33
2022-08-03T11:14:20.969Z,40.50
2022-08-03T11:16:23.672Z,41.05
2022-08-03T11:18:26.836Z,41.76
2022-08-03T11:20:51.391Z,41.69
2022-08-03T11:22:54.533Z,41.14
2022-08-03T11:24:57.317Z,40.96
2022-08-03T11:27:19.099Z,39.67
2022-08-03T11:29:30.862Z,39.69
2022-08-03T11:31:49.247Z,40.12
2022-08-03T11:34:10.049Z,40.60
2022-08-03T11:36:11.575Z,39.39
2022-08-03T11:38:13.330Z,39.94
2022-08-03T11:40:35.962Z,41.08
2022-08-03T11:42:37.831Z,41.41
2022-08-03T11:44:39.977Z,40.75
2022-08-03T11:46:41.677Z,40.71
2022-08-03T11:48:51.054Z,38.99
2022-08-03T11:50:52.626Z,38.53
2022-08-03T11:52:54.236Z,39.25
2022-08-03T11:54:56.922Z,38.92
2022-08-03T11:56:58.872Z,40.04
2022-08-03T11:59:17.871Z,39.67
2022-08-03T12:01:23.252Z,40.72
2022-08-03T12:03:24.916Z,40.04
2022-08-03T12:05:41.947Z,40.79
2022-08-03T12:08:03.255Z,39.32
2022-08-03T12:10:13.363Z,40.99
2022-08-03T12:12:16.334Z,40.48
2022-08-03T12:14:50.423Z,40.80
2022-08-03T12:16:41.029Z,41.00
2022-08-03T12:18:42.640Z,41.35
2022-08-03T12:20:45.473Z,41.04
2022-08-03T12:22:46.969Z,42.22
2022-08-03T12:24:48.475Z,40.59
2022-08-03T12:26:52.184Z,40.59
2022-08-03T12:29:01.101Z,42.15
2022-08-03T12:31:07.771Z,41.07
2022-08-03T12:33:28.267Z,41.58
2022-08-03T12:35:29.884Z,41.45
2022-08-03T12:37:32.065Z,41.56
2022-08-03T12:39:33.890Z,41.34
2022-08-03T12:41:40.790Z,41.24
2022-08-03T12:43:49.655Z,41.85
2022-08-03T12:45:51.259Z,41.15
2022-08-03T12:47:58.796Z,41.35
2022-08-03T12:50:00.288Z,41.29
2022-08-03T12:52:07.016Z,42.43
2022-08-03T12:54:16.018Z,42.43
2022-08-03T12:56:19.931Z,44.75
2022-08-03T12:58:35.878Z,42.22
2022-08-03T13:00:37.482Z,43.43
2022-08-03T13:02:39.283Z,42.19
2022-08-03T13:04:49.935Z,42.01
2022-08-03T13:07:03.470Z,41.39
2022-08-03T13:09:06.946Z,41.85
2022-08-03T13:11:53.648Z,42.08
2022-08-03T13:13:48.691Z,40.48
2022-08-03T13:15:50.263Z,39.62
2022-08-03T13:17:51.783Z,40.81
2022-08-03T13:19:54.144Z,39.67
2022-08-03T13:22:04.403Z,39.20
2022-08-03T13:24:06.660Z,38.88
2022-08-03T13:26:08.748Z,39.45
2022-08-03T13:28:14.144Z,38.90
2022-08-03T13:30:24.181Z,39.45
2022-08-03T13:32:33.168Z,39.72
2022-08-03T13:34:34.784Z,39.30
2022-08-03T13:37:07.452Z,39.88
2022-08-03T13:39:00.662Z,39.15
2022-08-03T13:41:04.813Z,39.46
2022-08-03T13:43:06.764Z,40.96
2022-08-03T13:45:09.695Z,39.83
2022-08-03T13:47:11.258Z,40.10
2022-08-03T13:49:13.218Z,39.76
2022-08-03T13:51:22.506Z,38.20
2022-08-03T13:53:24.459Z,38.24
2022-08-03T13:55:25.964Z,38.79
2022-08-03T13:58:11.638Z,39.18
2022-08-03T13:59:50.760Z,37.85
2022-08-03T14:01:55.681Z,37.62
2022-08-03T14:03:58.340Z,39.45
2022-08-03T14:05:59.840Z,38.53
2022-08-03T14:08:04.799Z,38.06
2022-08-03T14:10:07.074Z,38.11
2022-08-03T14:12:09.070Z,38.64
2022-08-03T14:14:11.043Z,37.77
2022-08-03T14:16:12.566Z,38.50
2022-08-03T14:18:27.734Z,37.87
2022-08-03T14:20:37.786Z,38.08
2022-08-03T14:22:49.208Z,37.53
2022-08-03T14:24:50.709Z,38.19
2022-08-03T14:26:53.094Z,37.79
2022-08-03T14:28:54.680Z,37.00
2022-08-03T14:30:56.357Z,37.40
2022-08-03T14:33:00.727Z,38.17
2022-08-03T14:35:02.518Z,38.26
2022-08-03T14:37:04.074Z,38.18
2022-08-03T14:39:05.612Z,38.80
2022-08-03T14:41:07.248Z,40.96
2022-08-03T14:43:21.495Z,38.90
2022-08-03T14:45:23.265Z,38.81
2022-08-03T14:47:24.897Z,38.01
2022-08-03T14:50:36.250Z,38.40
2022-08-03T14:51:51.394Z,38.46
2022-08-03T14:53:55.682Z,38.26
2022-08-03T14:55:57.447Z,38.48
2022-08-03T14:58:00.032Z,38.03
2022-08-03T15:00:01.754Z,37.11
2022-08-03T15:02:07.057Z,38.77
2022-08-03T15:04:11.709Z,36.96
2022-08-03T15:06:13.264Z,37.50
2022-08-03T15:08:14.861Z,37.54
2022-08-03T15:10:16.473Z,37.76
2022-08-03T15:12:17.991Z,37.87
2022-08-03T15:14:19.498Z,38.05
2022-08-03T15:16:30.085Z,37.90
2022-08-03T15:18:32.149Z,39.25
2022-08-03T15:20:43.989Z,40.01
2022-08-03T15:22:46.261Z,40.23
2022-08-03T15:24:47.850Z,38.76
2022-08-03T15:26:50.631Z,37.74
2022-08-03T15:28:52.107Z,38.11
2022-08-03T15:30:53.791Z,37.24
2022-08-03T15:32:55.265Z,37.75
2022-08-03T15:34:56.831Z,37.38
2022-08-03T15:36:58.390Z,37.42
2022-08-03T15:39:01.333Z,37.03
2022-08-03T15:41:03.038Z,37.12
2022-08-03T15:43:04.593Z,38.21
2022-08-03T15:45:06.652Z,37.99
2022-08-03T15:47:08.256Z,37.36
2022-08-03T15:49:12.526Z,38.12
2022-08-03T15:51:14.245Z,38.21
2022-08-03T15:53:15.750Z,38.36
2022-08-03T15:55:17.258Z,38.36
2022-08-03T15:57:19.212Z,37.38
2022-08-03T15:59:20.885Z,38.12
2022-08-03T16:01:22.597Z,37.28
2022-08-03T16:03:25.140Z,37.34
2022-08-03T16:05:26.731Z,37.40
2022-08-03T16:08:03.814Z,38.77
2022-08-03T16:10:05.571Z,39.34
2022-08-03T16:12:15.417Z,39.67
2022-08-03T16:14:32.061Z,38.36
2022-08-03T16:16:40.419Z,37.41
2022-08-03T16:18:42.616Z,37.79
2022-08-03T16:20:45.180Z,38.03
2022-08-03T16:22:48.481Z,38.59
2022-08-03T16:24:51.035Z,37.20
2022-08-03T16:26:52.625Z,38.23
2022-08-03T16:28:54.193Z,36.79
2022-08-03T16:30:55.717Z,36.92
2022-08-03T16:32:57.240Z,36.34
2022-08-03T16:34:58.914Z,36.81
2022-08-03T16:37:11.743Z,36.83
2022-08-03T16:39:21.995Z,36.89
2022-08-03T16:41:23.541Z,36.86
2022-08-03T16:43:25.246Z,38.38
2022-08-03T16:45:26.861Z,38.32
2022-08-03T16:47:28.420Z,38.63
2022-08-03T16:49:55.210Z,39.32
2022-08-03T16:51:51.487Z,38.42
2022-08-03T16:54:07.251Z,37.91
2022-08-03T16:56:10.683Z,38.61
2022-08-03T16:58:12.688Z,38.73
2022-08-03T17:00:33.661Z,38.34
2022-08-03T17:02:36.710Z,38.35
2022-08-03T17:04:40.352Z,37.58
2022-08-03T17:06:44.624Z,38.12
2022-08-03T17:08:55.312Z,38.32
2022-08-03T17:10:57.085Z,37.90
2022-08-03T17:12:58.677Z,38.02
2022-08-03T17:15:00.150Z,38.18
2022-08-03T17:17:06.082Z,38.37
2022-08-03T17:19:09.475Z,38.77
2022-08-03T17:21:15.151Z,39.02
2022-08-03T17:23:45.604Z,40.14
2022-08-03T17:26:01.514Z,40.10
2022-08-03T17:28:48.252Z,40.50
2022-08-03T17:30:47.516Z,39.48
2022-08-03T17:32:57.045Z,40.79
2022-08-03T17:35:00.018Z,45.04
2022-08-03T17:37:04.434Z,45.51
2022-08-03T17:39:06.644Z,45.78
2022-08-03T17:41:10.907Z,46.35
2022-08-03T17:44:13.773Z,46.07
2022-08-03T17:45:52.330Z,47.54
2022-08-03T17:47:57.446Z,47.60
2022-08-03T17:49:59.623Z,45.89
2022-08-03T17:52:06.611Z,45.69
2022-08-03T17:54:23.909Z,46.93
2022-08-03T17:56:46.048Z,45.91
2022-08-03T17:59:08.524Z,47.48
2022-08-03T18:01:58.269Z,49.47
2022-08-03T18:04:02.689Z,50.66
2022-08-03T18:06:12.846Z,50.58
2022-08-03T18:08:24.890Z,51.63
2022-08-03T18:10:33.642Z,51.71
2022-08-03T18:12:51.828Z,52.63
2022-08-03T18:15:07.778Z,53.68
2022-08-03T18:17:15.701Z,54.19
2022-08-03T18:19:19.265Z,54.45
2022-08-03T18:21:24.029Z,54.40
2022-08-03T18:23:36.909Z,55.09
2022-08-03T18:25:50.046Z,54.63
2022-08-03T18:27:56.257Z,53.51
2022-08-03T18:30:01.723Z,54.26
2022-08-03T18:32:12.931Z,55.19
2022-08-03T18:34:33.208Z,54.21
2022-08-03T18:36:37.550Z,55.77
2022-08-03T18:38:41.963Z,50.06
2022-08-03T18:40:48.650Z,46.71
2022-08-03T18:42:52.809Z,46.41
2022-08-03T18:44:57.099Z,48.24
2022-08-03T18:47:04.475Z,53.89
2022-08-03T18:49:16.545Z,55.31
2022-08-03T18:51:28.841Z,57.02
2022-08-03T18:54:02.603Z,58.51
2022-08-03T18:56:14.745Z,60.28
2022-08-03T18:58:27.685Z,61.41
2022-08-03T19:00:54.250Z,62.47
2022-08-03T19:03:01.790Z,63.31
2022-08-03T19:05:07.820Z,64.04
2022-08-03T19:07:11.157Z,63.71
2022-08-03T19:09:27.959Z,64.11
2022-08-03T19:12:14.249Z,64.48
2022-08-03T19:14:08.633Z,65.24
2022-08-03T19:16:27.390Z,65.73
2022-08-03T19:18:31.285Z,66.76
2022-08-03T19:20:32.899Z,67.92
2022-08-03T19:22:35.745Z,69.05
2022-08-03T19:24:39.934Z,69.58
2022-08-03T19:26:41.456Z,69.86
2022-08-03T19:28:43.200Z,69.94
2022-08-03T19:30:46.457Z,69.95
2022-08-03T19:32:55.230Z,70.24
2022-08-03T19:34:59.651Z,71.02
2022-08-03T19:37:02.527Z,71.83
2022-08-03T19:39:09.091Z,72.33
2022-08-03T19:41:15.354Z,71.87
2022-08-03T19:43:53.097Z,71.47
2022-08-03T19:46:05.797Z,71.53
2022-08-03T19:48:12.701Z,72.03
2022-08-03T19:50:15.512Z,72.51
2022-08-03T19:52:20.729Z,72.84
2022-08-03T19:54:52.829Z,73.33
2022-08-03T19:56:56.510Z,73.28
2022-08-03T19:58:59.315Z,73.71
2022-08-03T20:01:01.278Z,74.52
2022-08-03T20:03:24.811Z,75.39
2022-08-03T20:05:27.336Z,75.75
2022-08-03T20:07:33.499Z,75.64
2022-08-03T20:09:35.641Z,75.37
2022-08-03T20:11:44.950Z,75.78
2022-08-03T20:13:49.797Z,75.32
2022-08-03T20:15:53.407Z,75.98
2022-08-03T20:17:58.651Z,75.79
2022-08-03T20:20:00.754Z,75.27
2022-08-03T20:22:02.326Z,75.31
2022-08-03T20:24:24.230Z,74.97
2022-08-03T20:26:30.224Z,74.99
2022-08-03T20:28:50.655Z,74.22
2022-08-03T20:30:53.114Z,73.63
2022-08-03T20:32:54.652Z,75.40
2022-08-03T20:34:56.773Z,74.77
2022-08-03T20:37:00.180Z,75.19
2022-08-03T20:39:02.145Z,75.43
2022-08-03T20:41:09.605Z,75.69
2022-08-03T20:43:11.408Z,74.65
2022-08-03T20:45:59.683Z,73.90
2022-08-03T20:47:50.303Z,72.74
2022-08-03T20:49:53.001Z,72.74
2022-08-03T20:51:55.373Z,72.34
2022-08-03T20:54:00.678Z,71.92
2022-08-03T20:56:03.052Z,71.56
2022-08-03T20:58:04.676Z,71.85
2022-08-03T21:00:13.928Z,71.97
2022-08-03T21:02:19.547Z,71.54
2022-08-03T21:04:30.950Z,71.31
2022-08-03T21:06:37.613Z,71.73
2022-08-03T21:08:47.012Z,71.77
2022-08-03T21:10:51.661Z,71.36
2022-08-03T21:13:14.902Z,71.69
2022-08-03T21:16:06.823Z,71.32
2022-08-03T21:17:54.485Z,71.17
2022-08-03T21:19:57.282Z,71.38
2022-08-03T21:21:59.886Z,71.85
2022-08-03T21:24:03.629Z,71.33
2022-08-03T21:26:05.652Z,71.17
2022-08-03T21:28:07.829Z,71.13
2022-08-03T21:30:10.997Z,71.17
2022-08-03T21:32:19.349Z,71.18
2022-08-03T21:34:37.325Z,71.63
2022-08-03T21:36:38.897Z,71.20
2022-08-03T21:38:40.903Z,71.28
2022-08-03T21:40:42.574Z,71.26
2022-08-03T21:42:45.515Z,71.35
2022-08-03T21:44:47.038Z,71.58
2022-08-03T21:46:53.094Z,71.87
2022-08-03T21:50:07.692Z,71.35
2022-08-03T21:51:25.312Z,71.09
2022-08-03T21:54:02.525Z,71.62
2022-08-03T21:56:05.878Z,71.21
2022-08-03T21:58:08.837Z,71.76
2022-08-03T22:00:17.335Z,71.85
2022-08-03T22:02:23.972Z,71.40
2022-08-03T22:04:50.241Z,71.40
2022-08-03T22:06:48.542Z,71.59
2022-08-03T22:08:52.702Z,71.48
2022-08-03T22:10:54.336Z,71.45
2022-08-03T22:12:55.892Z,71.57
2022-08-03T22:15:01.993Z,71.63
2022-08-03T22:17:06.466Z,71.25
2022-08-03T22:19:08.853Z,70.94
2022-08-03T22:21:13.974Z,70.93
2022-08-03T22:23:21.174Z,70.62
2022-08-03T22:25:30.530Z,69.94
2022-08-03T22:27:34.988Z,69.96
2022-08-03T22:29:39.814Z,69.76
2022-08-03T22:31:58.732Z,69.68
2022-08-03T22:34:01.124Z,69.78
2022-08-03T22:36:04.689Z,69.88
2022-08-03T22:38:08.498Z,70.14
2022-08-03T22:40:14.924Z,70.45
2022-08-03T22:42:19.067Z,69.96
2022-08-03T22:44:21.825Z,69.94
2022-08-03T22:46:25.888Z,70.88
2022-08-03T22:48:27.788Z,70.62
2022-08-03T22:50:31.376Z,70.43
2022-08-03T22:52:36.870Z,70.06
2022-08-03T22:54:38.957Z,70.77
2022-08-03T22:56:41.373Z,70.29
2022-08-03T22:58:42.921Z,69.97
2022-08-03T23:00:57.617Z,70.38
2022-08-03T23:03:02.090Z,69.80
2022-08-03T23:05:16.431Z,70.54
2022-08-03T23:07:33.430Z,69.96
2022-08-03T23:09:35.362Z,69.69
2022-08-03T23:11:46.118Z,70.12
2022-08-03T23:13:52.197Z,69.75
2022-08-03T23:16:00.402Z,70.36
2022-08-03T23:18:03.886Z,69.60
2022-08-03T23:20:08.249Z,69.72
2022-08-03T23:22:28.613Z,70.46
2022-08-03T23:24:39.032Z,70.31
2022-08-03T23:26:41.301Z,70.33
2022-08-03T23:28:46.726Z,70.18
2022-08-03T23:30:51.024Z,70.36
2022-08-03T23:32:54.806Z,70.48
2022-08-03T23:35:17.840Z,70.42
2022-08-03T23:37:20.293Z,69.51
2022-08-03T23:39:22.627Z,70.17
2022-08-03T23:41:24.425Z,70.06
2022-08-03T23:43:45.293Z,70.30
2022-08-03T23:45:49.572Z,70.56
2022-08-03T23:47:51.252Z,71.35
2022-08-03T23:49:53.542Z,71.28
2022-08-03T23:52:08.386Z,72.28
2022-08-03T23:54:38.107Z,73.40
2022-08-03T23:56:52.153Z,73.28
2022-08-03T23:59:34.134Z,75.85
